Oklahoma City, OK (73127)

10:53 AM CST on February 28, 2015 (GMT -0600)
Musgrave-Pennington | Change Station
CLOSE
Current Station
Personal Weather Station
Location: Oklahoma City, OK
Elevation: 1286 ft
Nearby Weather Stations
Active Advisory: Winter Weather Advisory Active Notice: Record Report

Elev 1286 ft 35.49 °N, 97.59 °W | Updated 3 minutes ago

Snow
Snow
23.4 °F
Feels Like 23 °F
N
1.6
Wind Variable Wind from ESE
Gusts 3.1 mph

Today
High -- | Low -- °F
--% Chance of Precip.
Yesterday
High -- | Low -- °F
Precip. -- in
7:01 AM 6:24 PM
Waxing Gibbous, 78% visible
Pressure 30.40 in
Visibility 1.0 miles
Clouds Scattered Clouds 2000 ft
Overcast 3300 ft
Windchill 23 °F
Dew Point 19 °F
Humidity 83%
Rainfall 0.00 in
Snow Depth Not available.
UV 1 out of 12
Pollen .80 out of 12
Air Quality Not available.
Flu Activity Not available.
SPECI KPWA 281639Z 09003KT 1SM -SN BR SCT020 OVC033 M06/M08 A3040 RMK AO2 P0002 $

More Conditions Fewer Conditions

Pressure 30.40 in
Visibility 1.0 miles
Clouds Scattered Clouds 2000 ft
Overcast 3300 ft
Windchill 23 °F
Dew Point 19 °F
Humidity 83%
Rainfall 0.00 in
Snow Depth Not available.
UV 1 out of 12
Pollen .80 out of 12
Air Quality Not available.
Flu Activity Not available.
SPECI KPWA 281639Z 09003KT 1SM -SN BR SCT020 OVC033 M06/M08 A3040 RMK AO2 P0002 $

More Conditions Fewer Conditions

10-Day Weather Forecast

Almanac

Astronomy

Feb. 28, 2015 Rise Set
Actual Time
Civil Twilight
Nautical Twilight
Astronomical Twilight
Moon
Length of Visible Light
Length of Day
Tomorrow will be .
, % of the Moon is Illuminated

Today's Extremes

State Highs State Lows

Community

WunderPhotos

Upload Photos

1,801,081 photos uploaded!

WunderBlogs® & News

Nearby

Air Quality

  Air Quality AQ Index Pollutant
Not available.

Snow Depth

Station Depth Elevation

Earthquake Activity

City Distance Mag. Time & Date
Minimum magnitude displayed is 2.5.

Coastal Water Temperatures

Place Temperature

Nearby Weather Stations

Winter Weather Advisory
Statement as of 10:52 AM CST on February 28, 2015

... Winter Weather Advisory remains in effect until 6 PM CST this
evening...

A Winter Weather Advisory remains in effect until 6 PM CST this
evening.

* Main impact: patchy freezing drizzle will continue be possible
through this afternoon after the snow tapers off.

* Roads and walkways: roads and walkways will be slick and
hazardous. Travel is discouraged!

Precautionary/preparedness actions...

Be careful if you have to travel. Even small amounts of ice and
snow can make roads and sidewalks slick and dangerous.